Time;durP1;ratioP1;P1;durP2;ratioP2;P2;SDS_P1;SDS_P2;PMS_P1;PMS_P2;Temp;Humidity;BMP_temperature;BMP_pressure;BME280_temperature;BME280_humidity;BME280_pressure;Samples;Min_cycle;Max_cycle;Signal;HPM_P1;HPM_P2
2023/01/31 00:01:42;;;;;;;24.48;3.20;;;3.20;99.90;;;;;;5034961;28;25064;-86
2023/01/31 00:04:11;;;;;;;20.25;2.95;;;3.30;99.90;;;;;;5035030;28;25114;-87
2023/01/31 00:06:41;;;;;;;20.02;3.28;;;3.30;99.90;;;;;;5036963;28;25065;-86
2023/01/31 00:09:10;;;;;;;30.90;3.10;;;3.30;99.90;;;;;;5038364;28;25105;-86
2023/01/31 00:11:38;;;;;;;16.95;3.00;;;3.40;99.90;;;;;;5039252;28;25062;-87
2023/01/31 00:14:06;;;;;;;20.15;2.58;;;3.40;99.90;;;;;;5038479;28;25052;-86
2023/01/31 00:16:34;;;;;;;26.17;3.08;;;3.40;99.90;;;;;;5038222;28;25106;-86
2023/01/31 00:19:02;;;;;;;19.98;2.33;;;3.50;99.90;;;;;;5038484;28;25068;-86
2023/01/31 00:21:30;;;;;;;13.55;1.95;;;3.50;99.90;;;;;;5038255;28;25068;-87
2023/01/31 00:23:58;;;;;;;11.65;2.08;;;3.50;99.90;;;;;;5038356;28;25154;-86
2023/01/31 00:26:32;;;;;;;10.90;2.15;;;3.60;99.90;;;;;;5038390;28;25072;-86
2023/01/31 00:29:02;;;;;;;22.42;2.95;;;3.60;99.90;;;;;;5039025;28;25068;-87
2023/01/31 00:31:32;;;;;;;17.13;3.67;;;3.70;99.90;;;;;;5038021;28;25060;-86
2023/01/31 00:33:59;;;;;;;20.77;2.60;;;3.70;99.90;;;;;;5038480;28;25052;-86
2023/01/31 00:36:32;;;;;;;15.55;2.30;;;3.70;99.90;;;;;;5038964;28;25088;-86
2023/01/31 00:39:01;;;;;;;8.07;1.63;;;3.70;99.90;;;;;;5037992;28;25088;-87
2023/01/31 00:41:30;;;;;;;15.57;2.63;;;3.70;99.90;;;;;;5037818;28;25072;-86
2023/01/31 00:43:59;;;;;;;17.00;3.05;;;3.70;99.90;;;;;;5038250;28;25083;-86
2023/01/31 00:46:27;;;;;;;8.63;1.27;;;3.60;99.90;;;;;;5037540;28;25093;-86
2023/01/31 00:48:55;;;;;;;16.20;2.25;;;3.60;99.90;;;;;;5038105;28;25095;-86
2023/01/31 00:51:23;;;;;;;14.95;2.55;;;3.60;99.90;;;;;;5037792;28;25058;-86
2023/01/31 00:53:50;;;;;;;11.57;2.22;;;3.60;99.90;;;;;;5038682;28;25104;-86
2023/01/31 00:56:22;;;;;;;12.82;2.08;;;3.60;99.90;;;;;;5037380;28;25055;-86
2023/01/31 00:58:49;;;;;;;14.27;2.38;;;3.60;99.90;;;;;;5037490;28;25084;-86
2023/01/31 01:01:20;;;;;;;17.13;3.72;;;3.60;99.90;;;;;;5038681;28;25082;-86
2023/01/31 01:03:48;;;;;;;21.15;2.97;;;3.50;99.90;;;;;;5037645;28;25114;-86
2023/01/31 01:06:16;;;;;;;14.98;1.98;;;3.50;99.90;;;;;;5037625;28;25077;-86
2023/01/31 01:08:43;;;;;;;15.63;2.08;;;3.50;99.90;;;;;;5037340;28;25154;-85
2023/01/31 01:11:18;;;;;;;10.82;2.08;;;3.50;99.90;;;;;;5037377;28;25074;-86
2023/01/31 01:13:46;;;;;;;20.20;3.60;;;3.50;99.90;;;;;;5037268;28;24911;-85
2023/01/31 01:16:19;;;;;;;13.73;2.72;;;3.50;99.90;;;;;;5038162;28;25101;-86
2023/01/31 01:18:49;;;;;;;22.20;2.70;;;3.60;99.90;;;;;;5036338;28;25103;-85
2023/01/31 01:21:22;;;;;;;17.27;2.25;;;3.60;99.90;;;;;;5037999;28;25081;-85
2023/01/31 01:23:50;;;;;;;15.90;2.08;;;3.60;99.90;;;;;;5037986;28;25067;-85
2023/01/31 01:26:21;;;;;;;13.68;2.88;;;3.60;99.90;;;;;;5036761;28;25058;-85
2023/01/31 01:28:49;;;;;;;17.73;2.58;;;3.60;99.90;;;;;;5037162;28;25130;-85
2023/01/31 01:31:17;;;;;;;20.55;3.08;;;3.60;99.90;;;;;;5036720;28;25066;-85
2023/01/31 01:33:45;;;;;;;17.95;3.20;;;3.60;99.90;;;;;;5036847;28;25065;-85
2023/01/31 01:36:16;;;;;;;14.07;1.80;;;3.70;99.90;;;;;;5036711;28;25056;-85
2023/01/31 01:38:44;;;;;;;23.33;3.40;;;3.70;99.90;;;;;;5036632;28;25070;-86
2023/01/31 01:41:13;;;;;;;13.32;2.17;;;3.70;99.90;;;;;;5037617;28;25120;-86
2023/01/31 01:43:46;;;;;;;16.15;2.30;;;3.70;99.90;;;;;;5036782;28;25084;-86
2023/01/31 01:46:25;;;;;;;20.35;2.75;;;3.70;99.90;;;;;;5044742;28;25097;-85
2023/01/31 01:49:02;;;;;;;21.55;3.13;;;3.70;99.90;;;;;;5040337;28;25055;-85
2023/01/31 01:51:33;;;;;;;18.38;2.75;;;3.70;99.90;;;;;;5039590;28;25088;-85
2023/01/31 01:54:06;;;;;;;15.20;2.45;;;3.70;99.90;;;;;;5039999;28;25113;-85
2023/01/31 01:56:42;;;;;;;17.77;2.10;;;3.70;99.90;;;;;;5057680;28;25078;-85
2023/01/31 01:59:20;;;;;;;12.85;2.97;;;3.80;99.90;;;;;;5057459;28;25086;-85
2023/01/31 02:01:49;;;;;;;16.30;2.67;;;3.80;99.90;;;;;;5039642;28;25112;-86
2023/01/31 02:04:22;;;;;;;25.05;2.40;;;3.80;99.90;;;;;;5039788;28;25074;-86
2023/01/31 02:06:51;;;;;;;17.67;2.33;;;3.80;99.90;;;;;;5039549;28;25061;-85
2023/01/31 02:09:37;;;;;;;15.65;2.72;;;3.70;99.90;;;;;;5057415;28;25093;-86
2023/01/31 02:12:04;;;;;;;18.33;2.55;;;3.70;99.90;;;;;;5057346;28;25145;-85
2023/01/31 02:14:31;;;;;;;18.17;1.77;;;3.70;99.90;;;;;;5039305;28;25072;-85
2023/01/31 02:16:59;;;;;;;17.05;2.90;;;3.60;99.90;;;;;;5056879;28;25079;-85
2023/01/31 02:20:11;;;;;;;18.83;2.75;;;3.60;99.90;;;;;;5057542;28;25075;-85
2023/01/31 02:23:03;;;;;;;17.52;2.58;;;3.60;99.90;;;;;;5039152;28;25078;-85
2023/01/31 02:25:46;;;;;;;12.98;1.70;;;3.60;99.90;;;;;;5039322;28;25085;-85
2023/01/31 02:28:59;;;;;;;20.75;2.35;;;3.60;99.90;;;;;;5039163;28;25066;-85
2023/01/31 02:32:03;;;;;;;19.25;3.65;;;3.60;99.90;;;;;;5019019;28;25063;-85
2023/01/31 02:34:48;;;;;;;16.95;2.72;;;3.60;99.90;;;;;;5056617;28;25067;-85
2023/01/31 02:37:21;;;;;;;34.08;4.75;;;3.60;99.90;;;;;;5038953;28;25091;-85
2023/01/31 02:40:08;;;;;;;20.52;3.75;;;3.60;99.90;;;;;;5039002;28;25060;-85
2023/01/31 02:42:39;;;;;;;14.00;2.05;;;3.50;99.90;;;;;;5056534;28;25122;-85
2023/01/31 02:45:20;;;;;;;15.68;2.85;;;3.50;99.90;;;;;;5056668;28;25075;-85
2023/01/31 02:47:59;;;;;;;22.02;2.83;;;3.50;99.90;;;;;;5038903;28;25072;-85
2023/01/31 02:50:45;;;;;;;13.82;2.17;;;3.50;99.90;;;;;;5038709;28;25075;-85
2023/01/31 02:53:33;;;;;;;14.43;1.73;;;3.50;99.90;;;;;;5056921;28;25064;-85
2023/01/31 02:56:19;;;;;;;23.00;2.97;;;3.40;99.90;;;;;;5056259;28;25058;-85
2023/01/31 02:59:02;;;;;;;19.73;2.45;;;3.50;99.90;;;;;;5038825;28;25127;-85
2023/01/31 03:01:36;;;;;;;10.77;2.70;;;3.50;99.90;;;;;;5038684;28;25130;-85
2023/01/31 03:04:06;;;;;;;16.92;1.95;;;3.50;99.90;;;;;;5038745;28;25055;-85
2023/01/31 03:06:34;;;;;;;13.43;2.45;;;3.50;99.90;;;;;;5038506;28;25095;-85
2023/01/31 03:09:20;;;;;;;10.55;2.22;;;3.50;99.90;;;;;;5056630;28;25061;-85
2023/01/31 03:11:57;;;;;;;13.90;2.78;;;3.50;99.90;;;;;;5038319;28;25106;-85
2023/01/31 03:14:41;;;;;;;17.35;1.98;;;3.50;99.90;;;;;;5038547;28;25071;-85
2023/01/31 03:17:32;;;;;;;25.77;2.45;;;3.50;99.90;;;;;;5038724;28;25086;-85
2023/01/31 03:20:11;;;;;;;12.73;3.17;;;3.40;99.90;;;;;;5038539;28;25141;-85
2023/01/31 03:22:48;;;;;;;11.52;3.22;;;3.40;99.90;;;;;;5038478;28;25070;-85
2023/01/31 03:25:22;;;;;;;15.77;1.60;;;3.30;99.90;;;;;;5038588;28;25109;-85
2023/01/31 03:27:56;;;;;;;18.05;2.90;;;3.30;99.90;;;;;;5038415;28;25086;-85
2023/01/31 03:30:35;;;;;;;14.65;2.55;;;3.30;99.90;;;;;;5038329;28;25060;-85
2023/01/31 03:33:29;;;;;;;20.17;2.85;;;3.30;99.90;;;;;;5038483;28;25068;-85
2023/01/31 03:36:27;;;;;;;20.40;3.53;;;3.40;99.90;;;;;;5038183;28;25111;-85
2023/01/31 03:39:20;;;;;;;20.52;3.25;;;3.40;99.90;;;;;;5051629;28;25067;-85
2023/01/31 03:42:09;;;;;;;12.73;2.17;;;3.40;99.90;;;;;;5040772;28;25071;-85
2023/01/31 03:45:04;;;;;;;13.85;2.15;;;3.40;99.90;;;;;;5042306;28;25042;-85
2023/01/31 03:47:38;;;;;;;19.15;2.45;;;3.50;99.90;;;;;;5038693;28;25129;-85
2023/01/31 03:50:30;;;;;;;15.23;3.40;;;3.50;99.90;;;;;;5038599;28;25075;-85
2023/01/31 03:53:23;;;;;;;20.17;2.72;;;3.50;99.90;;;;;;5038587;28;25086;-84
2023/01/31 03:56:10;;;;;;;17.30;2.95;;;3.50;99.90;;;;;;5028195;28;25063;-85
2023/01/31 03:58:46;;;;;;;10.43;2.08;;;3.50;99.90;;;;;;5038688;28;25135;-85
2023/01/31 04:01:14;;;;;;;16.77;1.90;;;3.50;99.90;;;;;;5038179;28;25110;-85
2023/01/31 04:03:47;;;;;;;16.85;2.15;;;3.50;99.90;;;;;;5038516;28;25052;-85
2023/01/31 04:06:15;;;;;;;18.00;3.53;;;3.50;99.90;;;;;;5038338;28;25063;-85
2023/01/31 04:08:43;;;;;;;15.05;3.03;;;3.50;99.90;;;;;;5039314;28;25062;-84
2023/01/31 04:11:14;;;;;;;17.65;1.75;;;3.40;99.90;;;;;;5038131;28;25109;-85
2023/01/31 04:13:42;;;;;;;10.38;1.98;;;3.40;99.90;;;;;;5038496;28;25074;-85
2023/01/31 04:16:09;;;;;;;17.58;3.65;;;3.40;99.90;;;;;;5038239;28;25134;-85
2023/01/31 04:18:36;;;;;;;14.70;4.03;;;3.40;99.90;;;;;;5038309;28;25085;-84
2023/01/31 04:21:04;;;;;;;22.30;3.28;;;3.30;99.90;;;;;;5038359;28;25067;-84
2023/01/31 04:23:31;;;;;;;25.02;2.20;;;3.30;99.90;;;;;;5037279;28;25076;-84
2023/01/31 04:25:58;;;;;;;20.48;3.30;;;3.20;99.90;;;;;;5037231;28;25090;-84
2023/01/31 04:28:25;;;;;;;12.38;2.50;;;3.20;99.90;;;;;;5038561;28;25055;-85
2023/01/31 04:30:57;;;;;;;21.67;3.78;;;3.10;99.90;;;;;;5038917;28;25103;-85
2023/01/31 04:33:24;;;;;;;25.83;3.90;;;3.00;99.90;;;;;;5037922;28;25079;-85
2023/01/31 04:35:52;;;;;;;11.05;2.17;;;3.00;99.90;;;;;;5037815;28;25047;-84
2023/01/31 04:38:19;;;;;;;16.02;2.70;;;3.00;99.90;;;;;;5037974;28;25142;-85
2023/01/31 04:40:47;;;;;;;20.75;3.95;;;3.00;99.90;;;;;;5037656;28;25109;-85
2023/01/31 04:43:14;;;;;;;15.55;3.03;;;3.00;99.90;;;;;;5037695;28;25057;-85
2023/01/31 04:45:41;;;;;;;10.77;2.10;;;3.00;99.90;;;;;;5039748;28;25068;-85
2023/01/31 04:48:09;;;;;;;17.08;3.70;;;3.00;99.90;;;;;;5041156;28;25076;-84
2023/01/31 04:50:37;;;;;;;14.43;3.10;;;3.00;99.90;;;;;;5041079;28;25089;-82
2023/01/31 04:53:05;;;;;;;15.88;3.15;;;3.00;99.90;;;;;;5039673;28;25085;-83
2023/01/31 04:55:32;;;;;;;15.10;2.45;;;3.00;99.90;;;;;;5040651;28;25070;-87
2023/01/31 04:57:59;;;;;;;19.00;3.60;;;3.00;99.90;;;;;;5040840;28;25051;-85
2023/01/31 05:00:27;;;;;;;13.68;3.53;;;3.00;99.90;;;;;;5041242;28;25055;-85
2023/01/31 05:02:55;;;;;;;12.90;3.28;;;3.00;99.90;;;;;;5040669;28;25051;-85
2023/01/31 05:05:22;;;;;;;15.55;3.40;;;3.00;99.90;;;;;;5041453;28;25100;-85
2023/01/31 05:07:49;;;;;;;14.20;3.95;;;3.10;99.90;;;;;;5040730;28;25123;-85
2023/01/31 05:10:17;;;;;;;16.45;3.38;;;3.10;99.90;;;;;;5058262;28;25080;-85
2023/01/31 05:12:45;;;;;;;20.52;3.05;;;3.10;99.90;;;;;;5040588;28;25113;-85
2023/01/31 05:15:13;;;;;;;22.67;3.83;;;3.10;99.90;;;;;;5058053;28;25098;-85
2023/01/31 05:17:41;;;;;;;23.45;3.65;;;3.10;99.90;;;;;;5058104;28;25107;-84
2023/01/31 05:20:09;;;;;;;11.10;2.67;;;3.10;99.90;;;;;;5039569;28;25101;-84
2023/01/31 05:22:36;;;;;;;14.52;3.97;;;3.10;99.90;;;;;;5040281;28;25063;-84
2023/01/31 05:25:04;;;;;;;17.55;3.85;;;3.00;99.90;;;;;;5040132;28;25065;-84
2023/01/31 05:27:31;;;;;;;17.67;3.85;;;3.00;99.90;;;;;;5040266;28;25075;-84
2023/01/31 05:29:59;;;;;;;16.27;3.80;;;3.00;99.90;;;;;;5057754;28;25070;-84
2023/01/31 05:32:26;;;;;;;16.58;3.85;;;3.00;99.90;;;;;;5057622;28;25118;-85
2023/01/31 05:34:54;;;;;;;18.80;5.18;;;3.00;99.90;;;;;;5057636;28;25090;-84
2023/01/31 05:37:21;;;;;;;17.38;4.55;;;3.00;99.90;;;;;;5058047;28;25112;-84
2023/01/31 05:39:48;;;;;;;17.95;5.30;;;3.00;99.90;;;;;;5057530;28;25060;-85
2023/01/31 05:42:15;;;;;;;16.95;5.13;;;3.00;99.90;;;;;;5039995;28;25051;-84
2023/01/31 05:44:43;;;;;;;14.07;4.85;;;3.00;99.90;;;;;;5057777;28;25188;-84
2023/01/31 05:47:10;;;;;;;19.67;7.68;;;3.00;99.90;;;;;;5055094;28;25137;-85
2023/01/31 05:49:38;;;;;;;25.80;5.85;;;3.00;99.90;;;;;;5039744;28;25073;-84
2023/01/31 05:52:06;;;;;;;24.42;5.72;;;3.00;99.90;;;;;;5039104;28;25078;-84
2023/01/31 05:54:33;;;;;;;17.77;5.97;;;3.00;99.90;;;;;;5039509;28;25088;-84
2023/01/31 05:57:00;;;;;;;25.67;5.72;;;3.10;99.90;;;;;;5057554;28;25066;-84
2023/01/31 05:59:30;;;;;;;21.13;5.93;;;3.10;99.90;;;;;;5057364;28;25068;-85
2023/01/31 06:01:57;;;;;;;25.67;6.95;;;3.10;99.90;;;;;;5039281;28;25067;-84
2023/01/31 06:04:24;;;;;;;26.90;7.03;;;3.10;99.90;;;;;;5039090;28;25074;-84
2023/01/31 06:06:51;;;;;;;23.83;7.25;;;3.10;99.90;;;;;;5057318;28;25062;-85
2023/01/31 06:09:18;;;;;;;22.67;6.72;;;3.10;99.90;;;;;;5039514;28;25076;-84
2023/01/31 06:11:46;;;;;;;20.23;5.00;;;3.10;99.90;;;;;;5039108;28;25073;-84
2023/01/31 06:14:13;;;;;;;14.82;6.10;;;3.10;99.90;;;;;;5039255;28;25047;-84
2023/01/31 06:16:41;;;;;;;18.25;5.57;;;3.20;99.90;;;;;;5057160;28;25110;-84
2023/01/31 06:19:08;;;;;;;17.30;5.18;;;3.20;99.90;;;;;;5057258;28;25119;-84
2023/01/31 06:21:36;;;;;;;19.50;5.03;;;3.20;99.90;;;;;;5039123;28;25060;-84
2023/01/31 06:24:03;;;;;;;22.48;4.95;;;3.20;99.90;;;;;;5039142;28;25073;-84
2023/01/31 06:26:31;;;;;;;18.50;5.50;;;3.20;99.90;;;;;;5038962;28;25058;-84
2023/01/31 06:28:58;;;;;;;13.88;3.88;;;3.30;99.90;;;;;;5039141;28;25131;-85
2023/01/31 06:31:26;;;;;;;18.98;4.10;;;3.30;99.90;;;;;;5056807;28;25071;-84
2023/01/31 06:33:53;;;;;;;20.58;4.15;;;3.40;99.90;;;;;;5056600;28;25132;-84
2023/01/31 06:36:20;;;;;;;25.80;5.15;;;3.40;99.90;;;;;;5038052;28;25134;-84
2023/01/31 06:38:51;;;;;;;24.33;5.95;;;3.40;99.90;;;;;;5039046;28;25065;-84
2023/01/31 06:41:20;;;;;;;20.88;4.03;;;3.40;99.90;;;;;;5038705;28;25048;-84
2023/01/31 06:43:48;;;;;;;16.75;4.88;;;3.50;99.90;;;;;;5038793;28;25057;-85
2023/01/31 06:46:16;;;;;;;21.05;4.80;;;3.50;99.90;;;;;;5056085;28;25116;-85
2023/01/31 06:48:44;;;;;;;13.60;3.58;;;3.50;99.90;;;;;;5037983;28;25093;-84
2023/01/31 06:51:11;;;;;;;20.40;3.67;;;3.50;99.90;;;;;;5038653;28;25066;-85
2023/01/31 06:53:39;;;;;;;16.70;4.28;;;3.50;99.90;;;;;;5038741;28;25073;-84
2023/01/31 06:56:07;;;;;;;17.95;4.75;;;3.60;99.90;;;;;;5038575;28;25060;-89
2023/01/31 06:58:35;;;;;;;16.58;3.70;;;3.60;99.90;;;;;;5056399;28;25063;-82
2023/01/31 07:01:13;;;;;;;25.15;6.07;;;3.60;99.90;;;;;;5056457;28;25142;-82
2023/01/31 07:03:41;;;;;;;15.95;3.70;;;3.60;99.90;;;;;;5038696;28;25085;-82
2023/01/31 07:06:09;;;;;;;15.05;3.78;;;3.70;99.90;;;;;;5056132;28;25062;-82
2023/01/31 07:08:37;;;;;;;25.10;4.35;;;3.70;99.90;;;;;;5056427;28;25101;-82
2023/01/31 07:11:04;;;;;;;14.68;3.13;;;3.70;99.90;;;;;;5056246;28;25116;-82
2023/01/31 07:13:32;;;;;;;21.45;3.10;;;3.80;99.90;;;;;;5037939;28;25133;-84
2023/01/31 07:16:00;;;;;;;19.13;4.95;;;3.80;99.90;;;;;;5039809;28;25129;-84
2023/01/31 07:18:27;;;;;;;18.38;4.20;;;3.80;99.90;;;;;;5042518;28;25118;-85
2023/01/31 07:20:55;;;;;;;22.75;3.70;;;3.80;99.90;;;;;;5060502;28;25157;-84
2023/01/31 07:23:23;;;;;;;10.30;3.55;;;3.80;99.90;;;;;;5042665;28;25125;-79
2023/01/31 07:25:50;;;;;;;21.40;3.72;;;3.80;99.90;;;;;;5042372;28;25111;-81
2023/01/31 07:28:18;;;;;;;13.02;3.00;;;3.90;99.90;;;;;;5042359;28;25070;-80
2023/01/31 07:30:47;;;;;;;22.58;4.75;;;3.90;99.90;;;;;;5060143;28;25051;-80
2023/01/31 07:33:14;;;;;;;11.82;3.25;;;3.90;99.90;;;;;;5060150;28;25051;-74
2023/01/31 07:35:42;;;;;;;13.73;4.55;;;4.00;99.90;;;;;;5060133;28;25054;-78
2023/01/31 07:38:09;;;;;;;13.18;3.40;;;4.00;99.90;;;;;;5042130;28;25106;-78
2023/01/31 07:40:38;;;;;;;12.85;3.45;;;4.00;99.90;;;;;;5042125;28;25048;-83
2023/01/31 07:43:06;;;;;;;16.25;4.68;;;4.00;99.90;;;;;;5042233;28;25111;-86
2023/01/31 07:45:33;;;;;;;18.90;3.70;;;4.00;99.90;;;;;;5059730;28;25067;-81
2023/01/31 07:48:02;;;;;;;13.50;3.22;;;4.00;99.90;;;;;;5041996;28;25071;-80
2023/01/31 07:50:29;;;;;;;19.70;4.22;;;4.00;99.90;;;;;;5041877;28;25092;-85
2023/01/31 07:52:57;;;;;;;15.00;4.90;;;4.10;99.90;;;;;;5042018;28;25061;-86
2023/01/31 07:55:26;;;;;;;19.02;4.65;;;4.10;99.90;;;;;;5041786;28;25056;-82
2023/01/31 07:57:53;;;;;;;20.08;3.72;;;4.10;99.90;;;;;;5041837;28;25061;-84
2023/01/31 08:03:33;;;;;;;20.00;4.63;;;4.20;99.90;;;;;;5059719;28;25070;-74
2023/01/31 08:06:07;;;;;;;23.48;5.30;;;4.20;99.90;;;;;;5059323;28;25082;-73
2023/01/31 08:08:35;;;;;;;14.95;3.95;;;4.30;99.90;;;;;;5059851;28;25108;-73
2023/01/31 08:11:06;;;;;;;21.67;6.78;;;4.30;99.90;;;;;;5059071;28;25052;-71
2023/01/31 08:13:35;;;;;;;24.85;6.18;;;4.30;99.90;;;;;;5041517;28;25074;-74
2023/01/31 08:16:08;;;;;;;25.95;7.22;;;4.30;99.90;;;;;;5059207;28;25100;-75
2023/01/31 08:18:36;;;;;;;19.80;5.82;;;4.40;99.90;;;;;;5059331;28;25108;-72
2023/01/31 08:21:04;;;;;;;18.83;5.13;;;4.40;99.90;;;;;;5041411;28;25048;-73
2023/01/31 08:23:31;;;;;;;25.58;6.72;;;4.40;99.90;;;;;;5059356;28;25092;-77
2023/01/31 08:26:12;;;;;;;23.73;11.15;;;4.50;99.90;;;;;;5041226;28;25102;-76
2023/01/31 08:28:40;;;;;;;21.63;6.35;;;4.50;99.90;;;;;;5041387;28;25088;-76
2023/01/31 08:31:14;;;;;;;20.00;6.55;;;4.60;99.90;;;;;;5058793;28;25069;-87
2023/01/31 08:33:41;;;;;;;17.27;6.50;;;4.60;99.90;;;;;;5058795;28;25107;-72
2023/01/31 08:36:16;;;;;;;21.17;5.70;;;4.60;99.90;;;;;;5059265;28;25061;-72
2023/01/31 08:38:43;;;;;;;21.77;6.72;;;4.70;99.90;;;;;;5059247;28;25063;-72
2023/01/31 08:41:11;;;;;;;22.65;6.53;;;4.70;99.90;;;;;;5040831;28;25109;-72
2023/01/31 08:43:39;;;;;;;14.10;6.20;;;4.80;99.90;;;;;;5040998;28;25056;-72
2023/01/31 08:46:06;;;;;;;21.05;7.43;;;4.80;99.90;;;;;;5058364;28;25067;-72
2023/01/31 08:48:35;;;;;;;17.02;5.70;;;4.80;99.90;;;;;;5059280;28;25072;-72
2023/01/31 08:51:07;;;;;;;23.30;6.35;;;4.90;99.90;;;;;;5040681;28;25056;-72
2023/01/31 08:53:38;;;;;;;29.77;6.85;;;4.90;99.90;;;;;;5059035;28;25057;-72
2023/01/31 08:56:07;;;;;;;18.55;6.05;;;5.00;99.90;;;;;;5058336;28;25056;-72
2023/01/31 08:58:40;;;;;;;23.45;7.00;;;5.00;99.90;;;;;;5059093;28;25061;-72
2023/01/31 09:01:10;;;;;;;18.02;5.82;;;5.10;99.90;;;;;;5058271;28;25062;-72
2023/01/31 09:03:38;;;;;;;22.25;6.38;;;5.10;99.90;;;;;;5058314;28;25049;-74
2023/01/31 09:06:11;;;;;;;23.63;11.57;;;5.10;99.90;;;;;;5058239;28;25092;-73
2023/01/31 09:08:38;;;;;;;23.42;8.40;;;5.10;99.90;;;;;;5058202;28;25100;-74
2023/01/31 09:11:06;;;;;;;19.48;5.70;;;5.20;99.90;;;;;;5041095;28;25156;-74
2023/01/31 09:13:34;;;;;;;14.68;5.38;;;5.20;99.90;;;;;;5058098;28;25089;-74
2023/01/31 09:16:10;;;;;;;18.08;5.53;;;5.30;99.90;;;;;;5040276;28;25133;-73
2023/01/31 09:18:38;;;;;;;;;;;5.30;99.90;;;;;;5058569;28;25104;-73
2023/01/31 09:21:17;;;;;;;18.73;6.13;;;5.20;99.90;;;;;;5040148;28;24069;-74
2023/01/31 09:23:46;;;;;;;18.45;5.18;;;5.10;99.90;;;;;;5057885;28;25075;-77
2023/01/31 09:26:15;;;;;;;16.67;5.97;;;5.00;99.90;;;;;;5040044;28;25068;-74
2023/01/31 09:28:42;;;;;;;18.20;7.15;;;4.90;99.90;;;;;;5058494;28;25049;-73
2023/01/31 09:31:15;;;;;;;11.63;5.05;;;4.80;99.90;;;;;;5057643;28;25066;-73
2023/01/31 09:33:43;;;;;;;22.13;6.28;;;4.70;99.90;;;;;;5057715;28;25076;-73
2023/01/31 09:36:14;;;;;;;19.08;4.97;;;4.70;99.90;;;;;;5057641;28;25115;-73
2023/01/31 09:38:41;;;;;;;18.13;5.38;;;4.60;99.90;;;;;;5039257;28;25087;-73
2023/01/31 09:41:53;;;;;;;17.52;5.72;;;4.60;99.90;;;;;;5057454;28;25118;-70
2023/01/31 09:44:37;;;;;;;16.02;4.97;;;4.50;99.90;;;;;;5052801;28;25070;-74
2023/01/31 09:47:27;;;;;;;17.33;5.80;;;4.40;99.90;;;;;;5057348;28;25100;-73
2023/01/31 09:50:18;;;;;;;14.32;5.07;;;4.40;99.90;;;;;;5057599;28;25065;-73
2023/01/31 09:52:47;;;;;;;21.30;6.38;;;4.30;99.90;;;;;;5056116;28;25140;-75
2023/01/31 09:55:27;;;;;;;24.80;5.65;;;4.30;99.90;;;;;;5057435;28;25134;-74
2023/01/31 09:58:05;;;;;;;15.48;5.35;;;4.30;99.90;;;;;;5057234;28;25125;-73
2023/01/31 10:00:47;;;;;;;13.95;5.75;;;4.20;99.90;;;;;;5057387;28;25077;-71
2023/01/31 10:03:33;;;;;;;13.15;4.65;;;4.20;99.90;;;;;;5039631;28;25063;-71
2023/01/31 10:06:13;;;;;;;14.88;6.00;;;4.20;99.90;;;;;;5057675;28;25060;-72
2023/01/31 10:08:56;;;;;;;14.52;6.20;;;4.20;99.90;;;;;;5057599;28;25086;-71
2023/01/31 10:11:44;;;;;;;12.93;4.03;;;4.20;99.90;;;;;;5056826;28;25055;-72
2023/01/31 10:14:45;;;;;;;16.38;5.90;;;4.20;99.90;;;;;;5057346;28;25060;-72
2023/01/31 10:17:43;;;;;;;11.27;4.95;;;4.20;99.90;;;;;;5039182;28;25107;-73
2023/01/31 10:20:29;;;;;;;8.77;4.30;;;4.20;99.90;;;;;;5056769;28;25085;-74
2023/01/31 10:23:15;;;;;;;17.17;5.35;;;4.20;99.90;;;;;;5057509;28;25140;-71
2023/01/31 10:25:52;;;;;;;13.60;4.90;;;4.20;99.90;;;;;;5056610;28;25105;-73
2023/01/31 10:28:28;;;;;;;12.15;4.50;;;4.10;99.90;;;;;;5056714;28;25074;-73
2023/01/31 10:31:00;;;;;;;18.93;5.37;;;4.10;99.90;;;;;;5057099;28;25131;-73
2023/01/31 10:33:53;;;;;;;18.17;5.32;;;4.10;99.90;;;;;;5057022;28;25094;-73
2023/01/31 10:36:52;;;;;;;13.32;4.10;;;4.10;99.90;;;;;;5057155;28;25083;-73
2023/01/31 10:39:49;;;;;;;11.40;4.03;;;4.10;99.90;;;;;;5042262;28;25056;-73
2023/01/31 10:42:36;;;;;;;9.85;3.88;;;4.20;99.90;;;;;;5056611;28;25081;-73
2023/01/31 10:45:16;;;;;;;25.98;4.18;;;4.20;99.90;;;;;;5038818;28;25076;-72
2023/01/31 10:47:52;;;;;;;10.32;3.22;;;4.20;99.90;;;;;;5056113;28;25145;-73
2023/01/31 10:50:34;;;;;;;6.90;3.35;;;4.20;99.90;;;;;;5055737;28;25112;-73
2023/01/31 10:53:18;;;;;;;14.15;3.88;;;4.20;99.90;;;;;;5056515;28;25070;-73
2023/01/31 10:55:55;;;;;;;9.82;4.18;;;4.20;99.90;;;;;;5056126;28;25071;-73
2023/01/31 10:58:23;;;;;;;14.00;3.35;;;4.20;99.90;;;;;;5056814;28;25076;-73
2023/01/31 11:00:50;;;;;;;14.10;4.55;;;4.20;99.90;;;;;;5056790;28;25056;-73
2023/01/31 11:03:18;;;;;;;14.13;4.15;;;4.20;99.90;;;;;;5038690;28;25122;-73
2023/01/31 11:05:55;;;;;;;12.32;3.92;;;4.20;99.90;;;;;;5056184;28;25075;-73
2023/01/31 11:08:33;;;;;;;10.70;4.40;;;4.20;99.90;;;;;;5056180;28;25074;-73
2023/01/31 11:11:11;;;;;;;12.13;3.80;;;4.30;99.90;;;;;;5055990;28;25072;-73
2023/01/31 11:13:39;;;;;;;7.85;3.80;;;4.30;99.90;;;;;;5038595;28;25084;-82
2023/01/31 11:16:12;;;;;;;10.38;4.38;;;4.40;99.90;;;;;;5056063;28;25104;-72
2023/01/31 11:18:49;;;;;;;17.27;4.88;;;4.40;99.90;;;;;;5038316;28;25116;-72
2023/01/31 11:21:30;;;;;;;12.70;4.88;;;4.50;99.90;;;;;;5038337;28;25131;-72
2023/01/31 11:24:08;;;;;;;13.95;4.32;;;4.50;99.90;;;;;;5056205;28;25059;-72
2023/01/31 11:26:39;;;;;;;10.68;4.43;;;4.50;99.90;;;;;;5056034;28;25130;-72
2023/01/31 11:29:44;;;;;;;10.95;4.25;;;4.60;99.90;;;;;;5038309;28;25105;-73
2023/01/31 11:32:30;;;;;;;12.23;4.72;;;4.60;99.90;;;;;;5056563;28;25051;-72
2023/01/31 11:35:05;;;;;;;14.20;4.75;;;4.60;99.90;;;;;;5056142;28;25084;-72
2023/01/31 11:37:34;;;;;;;17.02;5.88;;;4.60;99.90;;;;;;5055923;28;25015;-72
2023/01/31 11:40:25;;;;;;;19.83;5.28;;;4.60;99.90;;;;;;5056951;28;25075;-72
2023/01/31 11:42:55;;;;;;;17.20;6.22;;;4.60;99.90;;;;;;5039759;28;25075;-72
2023/01/31 11:45:26;;;;;;;14.70;5.43;;;4.60;99.90;;;;;;5038196;28;25070;-70
2023/01/31 11:47:57;;;;;;;20.45;5.90;;;4.60;99.90;;;;;;5030413;28;25112;-71
2023/01/31 11:50:37;;;;;;;17.42;6.35;;;4.60;99.90;;;;;;5035855;28;25067;-70
2023/01/31 11:53:15;;;;;;;27.58;6.18;;;4.70;99.90;;;;;;5036031;28;25102;-70
2023/01/31 11:55:43;;;;;;;26.98;7.53;;;4.60;99.90;;;;;;5036307;28;25064;-72
2023/01/31 11:58:21;;;;;;;14.73;6.20;;;4.70;99.90;;;;;;5035795;28;25078;-71
2023/01/31 12:01:23;;;;;;;13.40;6.03;;;4.70;99.90;;;;;;5036279;28;25062;-71
2023/01/31 12:04:06;;;;;;;17.45;6.55;;;4.70;99.90;;;;;;5040150;28;25070;-72
2023/01/31 12:06:35;;;;;;;14.05;5.78;;;4.70;99.90;;;;;;5039315;28;25068;-72
2023/01/31 12:09:22;;;;;;;15.23;6.80;;;4.60;99.90;;;;;;5021752;28;25144;-73
2023/01/31 12:11:51;;;;;;;;;;;4.60;99.90;;;;;;5039582;28;25161;-71
2023/01/31 12:14:19;;;;;;;11.50;5.50;;;4.60;99.90;;;;;;5021952;28;24063;-72
2023/01/31 12:16:49;;;;;;;12.57;5.93;;;4.60;99.90;;;;;;5039190;28;25060;-77
2023/01/31 12:19:53;;;;;;;15.13;6.43;;;4.60;99.90;;;;;;5021848;28;25058;-74
2023/01/31 12:22:47;;;;;;;11.40;5.35;;;4.60;99.90;;;;;;4989714;28;25073;-73
2023/01/31 12:25:33;;;;;;;12.20;4.60;;;4.60;99.90;;;;;;5011257;28;25136;-74
2023/01/31 12:28:17;;;;;;;16.10;4.80;;;4.60;99.90;;;;;;5022305;28;25047;-73
2023/01/31 12:30:47;;;;;;;15.30;6.43;;;4.60;99.90;;;;;;5021231;28;25071;-73
2023/01/31 12:33:51;;;;;;;9.55;4.13;;;4.60;99.90;;;;;;5039362;28;25072;-72
2023/01/31 12:37:18;;;;;;;21.08;6.32;;;4.60;99.90;;;;;;5021262;28;25053;-75
2023/01/31 12:40:03;;;;;;;17.05;5.00;;;4.60;99.90;;;;;;5038085;28;25068;-74
2023/01/31 12:42:52;;;;;;;13.75;5.00;;;4.60;99.90;;;;;;5021301;28;25086;-72
2023/01/31 12:45:35;;;;;;;12.98;5.97;;;4.60;99.90;;;;;;5021145;28;25074;-69
2023/01/31 12:48:34;;;;;;;17.13;5.93;;;4.60;99.90;;;;;;5018780;28;25057;-71
2023/01/31 12:51:16;;;;;;;15.85;5.70;;;4.70;99.90;;;;;;5018755;28;25096;-69
2023/01/31 12:54:05;;;;;;;11.48;4.32;;;4.70;99.90;;;;;;5019026;28;25053;-92
2023/01/31 12:57:19;;;;;;;17.88;7.15;;;4.70;99.90;;;;;;5019182;28;25062;-69
2023/01/31 12:59:59;;;;;;;13.63;5.97;;;4.70;99.90;;;;;;4952160;29;25057;-68
2023/01/31 13:03:03;;;;;;;12.48;5.40;;;4.80;99.90;;;;;;5012168;28;25165;-70
2023/01/31 13:05:39;;;;;;;17.08;6.18;;;4.80;99.90;;;;;;5018785;28;25136;-69
2023/01/31 13:08:34;;;;;;;17.73;7.13;;;4.80;99.90;;;;;;5018643;28;25061;-69
2023/01/31 13:11:13;;;;;;;19.05;7.05;;;4.80;99.90;;;;;;5015345;28;25071;-71
2023/01/31 13:13:57;;;;;;;12.90;6.80;;;4.80;99.90;;;;;;5017416;28;25056;-71
2023/01/31 13:16:46;;;;;;;14.07;7.03;;;4.80;99.90;;;;;;5018475;28;25085;-71
2023/01/31 13:19:24;;;;;;;15.93;8.40;;;4.80;99.90;;;;;;5018468;28;25068;-70
2023/01/31 13:22:01;;;;;;;9.55;5.05;;;4.80;99.90;;;;;;5018816;28;25067;-71
2023/01/31 13:24:38;;;;;;;16.80;9.60;;;4.80;99.90;;;;;;5018201;28;25065;-71
2023/01/31 13:27:35;;;;;;;12.98;6.88;;;4.80;99.90;;;;;;5018879;28;25079;-72
2023/01/31 13:30:35;;;;;;;12.10;6.45;;;4.80;99.90;;;;;;5018051;28;25060;-70